Accueil
METAR-TAF:

METAR-TAF

Aéroports :

Laupheim, Allemagne

latitude: 48-13N, longitude: 009-55E, altitude: 538 m

Observation

Le bulletin a été fait il y a 47 minutes, à 20:20 UTC
Vent 5 kt de nord-est
Température 1°C
Humidité 59%
Pression 1018 hPa
Visibilité 10 km ou plus
Nuages épars à une hauteur de 22000 ft

METAR: ETHL 082020Z 05005KT 9999 SCT220 01/M06 Q1018 BLU+BLU+

Heure: 22:07 (21:07 UTC)

Prévision

Le bulletin a été fait il y a 3 heures et 47 minutes, à 17:20 UTC
Prévision valable du 08 à 18 UTC au 09 à 03 UTC
Vent 5 kt de nord-est
Visibilité 10 km ou plus
Quelques nuages à une hauteur de 5000 ft
Nuages épars à une hauteur de 22000 ft

TAF: ETHL 081720Z 0818/0903 05005KT 9999 NSW FEW050 SCT220

Observations et prévisions météorologiques de plus de 4000 aéroports (messages METAR et TAF).

Les stations disponibles sont représentées par des disques jaunes et rouges sur la carte.

Passer la souris dessus pour voir le nom de la station.

Cliquer dessus pour voir les observations et prévisions météorologiques.

Pour changer de carte: cliquez sur les boutons verts avec une croix noire pour zoomer, sur le bouton vert avec un tiret pour effectuer un zoom arrière, ou sur les flèches vertes pour les cartes adjacentes.


METAR-TAF: